createdAt,value
2023-05-07T00:00:38.791Z,9.66
2023-05-07T00:01:38.688Z,9.63
2023-05-07T00:02:38.912Z,9.63
2023-05-07T00:03:38.753Z,9.64
2023-05-07T00:04:38.833Z,9.67
2023-05-07T00:05:38.646Z,9.66
2023-05-07T00:06:38.640Z,9.66
2023-05-07T00:07:38.623Z,9.63
2023-05-07T00:08:38.648Z,9.78
2023-05-07T00:09:38.614Z,9.75
2023-05-07T00:10:38.593Z,9.78
2023-05-07T00:11:38.602Z,9.70
2023-05-07T00:12:38.614Z,9.68
2023-05-07T00:13:38.567Z,9.75
2023-05-07T00:14:38.589Z,9.78
2023-05-07T00:15:38.564Z,9.78
2023-05-07T00:16:38.679Z,9.79
2023-05-07T00:17:38.572Z,9.66
2023-05-07T00:18:38.575Z,9.70
2023-05-07T00:19:38.484Z,9.66
2023-05-07T00:20:38.477Z,9.67
2023-05-07T00:21:38.474Z,9.64
2023-05-07T00:22:38.475Z,9.75
2023-05-07T00:23:38.462Z,9.71
2023-05-07T00:24:38.434Z,9.61
2023-05-07T00:25:38.421Z,9.66
2023-05-07T00:26:38.410Z,9.66
2023-05-07T00:27:38.462Z,9.67
2023-05-07T00:28:38.384Z,9.64
2023-05-07T00:29:38.376Z,9.67
2023-05-07T00:30:38.377Z,9.64
2023-05-07T00:31:38.395Z,9.67
2023-05-07T00:32:38.462Z,9.75
2023-05-07T00:33:38.336Z,9.73
2023-05-07T00:34:38.341Z,9.68
2023-05-07T00:35:38.324Z,9.66
2023-05-07T00:36:38.346Z,9.68
2023-05-07T00:37:38.304Z,9.67
2023-05-07T00:38:38.284Z,9.67
2023-05-07T00:39:38.265Z,9.79
2023-05-07T00:40:38.282Z,9.71
2023-05-07T00:41:38.254Z,9.64
2023-05-07T00:42:38.259Z,9.66
2023-05-07T00:43:38.231Z,9.66
2023-05-07T00:44:38.208Z,9.78
2023-05-07T00:45:38.211Z,9.60
2023-05-07T00:46:38.284Z,9.66
2023-05-07T00:47:38.204Z,9.64
2023-05-07T00:48:38.335Z,9.64
2023-05-07T00:49:38.154Z,9.68
2023-05-07T00:50:38.177Z,9.66
2023-05-07T00:51:38.219Z,9.64
2023-05-07T00:52:38.124Z,9.63
2023-05-07T00:53:38.110Z,9.60
2023-05-07T00:54:38.097Z,9.78
2023-05-07T00:55:38.140Z,9.67
2023-05-07T00:56:38.102Z,9.79
2023-05-07T00:57:38.088Z,9.83
2023-05-07T00:58:38.073Z,9.81
2023-05-07T00:59:38.043Z,9.75
2023-05-07T01:00:38.064Z,9.76
2023-05-07T01:01:38.108Z,9.83
2023-05-07T01:02:38.048Z,9.82
2023-05-07T01:03:38.005Z,9.75
2023-05-07T01:04:38.203Z,9.71
2023-05-07T01:05:38.002Z,9.78
2023-05-07T01:06:37.973Z,9.71
2023-05-07T01:07:37.959Z,9.66
2023-05-07T01:08:37.956Z,9.78
2023-05-07T01:09:37.955Z,9.68
2023-05-07T01:10:37.931Z,9.64
2023-05-07T01:11:37.918Z,9.70
2023-05-07T01:12:37.912Z,9.67
2023-05-07T01:13:37.895Z,9.70
2023-05-07T01:14:37.903Z,9.68
2023-05-07T01:15:37.878Z,9.70
2023-05-07T01:16:37.895Z,9.71
2023-05-07T01:17:37.886Z,9.58
2023-05-07T01:18:37.874Z,9.56
2023-05-07T01:19:37.869Z,9.68
2023-05-07T01:20:37.920Z,9.63
2023-05-07T01:21:37.806Z,9.66
2023-05-07T01:22:37.794Z,9.57
2023-05-07T01:23:37.805Z,9.63
2023-05-07T01:24:37.789Z,9.63
2023-05-07T01:25:37.762Z,9.45
2023-05-07T01:26:37.749Z,9.49
2023-05-07T01:27:37.738Z,9.42
2023-05-07T01:28:37.765Z,9.52
2023-05-07T01:29:37.720Z,9.60
2023-05-07T01:30:37.719Z,9.63
2023-05-07T01:31:37.720Z,9.58
2023-05-07T01:32:37.832Z,9.60
2023-05-07T01:33:37.712Z,9.58
2023-05-07T01:34:37.664Z,9.58
2023-05-07T01:35:37.681Z,9.66
2023-05-07T01:36:37.680Z,9.63
2023-05-07T01:37:37.655Z,9.63
2023-05-07T01:38:37.636Z,9.63
2023-05-07T01:39:37.606Z,9.61
2023-05-07T01:40:37.612Z,9.63
2023-05-07T01:41:37.586Z,9.66
2023-05-07T01:42:37.577Z,9.58
2023-05-07T01:43:37.567Z,9.64
2023-05-07T01:44:37.550Z,9.53
2023-05-07T01:45:37.582Z,9.64
2023-05-07T01:46:37.548Z,9.66
2023-05-07T01:47:37.564Z,9.66
2023-05-07T01:48:37.526Z,9.63
2023-05-07T01:49:37.495Z,9.68
2023-05-07T01:50:37.512Z,9.61
2023-05-07T01:51:37.494Z,9.71
2023-05-07T01:52:37.592Z,9.70
2023-05-07T01:53:37.448Z,9.63
2023-05-07T01:54:37.442Z,9.64
2023-05-07T01:55:37.425Z,9.66
2023-05-07T01:56:37.437Z,9.64
2023-05-07T01:57:37.407Z,9.61
2023-05-07T01:58:37.397Z,9.66
2023-05-07T01:59:37.380Z,9.58
2023-05-07T02:00:37.398Z,9.73
2023-05-07T02:01:37.443Z,9.75
2023-05-07T02:02:37.417Z,9.67
2023-05-07T02:03:37.482Z,9.64
2023-05-07T02:04:37.332Z,9.67
2023-05-07T02:05:37.340Z,9.63
2023-05-07T02:06:37.306Z,9.67
2023-05-07T02:07:37.294Z,9.67
2023-05-07T02:08:37.374Z,9.73
2023-05-07T02:09:37.280Z,9.67
2023-05-07T02:10:37.280Z,9.70
2023-05-07T02:11:37.257Z,9.68
2023-05-07T02:12:37.329Z,9.63
2023-05-07T02:13:37.252Z,9.78
2023-05-07T02:14:37.234Z,9.68
2023-05-07T02:15:37.261Z,9.63
2023-05-07T02:16:37.214Z,9.68
2023-05-07T02:17:37.239Z,9.66
2023-05-07T02:18:37.274Z,9.73
2023-05-07T02:19:37.198Z,9.78
2023-05-07T02:20:37.169Z,9.70
2023-05-07T02:21:37.146Z,9.64
2023-05-07T02:22:37.135Z,9.64
2023-05-07T02:23:37.123Z,9.60
2023-05-07T02:24:37.152Z,9.58
2023-05-07T02:25:37.108Z,9.58
2023-05-07T02:26:37.088Z,9.64
2023-05-07T02:27:37.084Z,9.58
2023-05-07T02:28:37.083Z,9.61
2023-05-07T02:29:37.084Z,9.57
2023-05-07T02:30:37.047Z,9.48
2023-05-07T02:31:37.083Z,9.52
2023-05-07T02:32:37.051Z,9.57
2023-05-07T02:33:37.050Z,9.64
2023-05-07T02:34:37.009Z,9.52
2023-05-07T02:35:37.036Z,9.63
2023-05-07T02:36:36.994Z,9.60
2023-05-07T02:37:36.982Z,9.66
2023-05-07T02:38:37.023Z,9.58
2023-05-07T02:39:36.957Z,9.68
2023-05-07T02:40:37.106Z,9.71
2023-05-07T02:41:36.929Z,9.67
2023-05-07T02:42:36.940Z,9.61
2023-05-07T02:43:36.920Z,9.58
2023-05-07T02:44:36.894Z,9.61
2023-05-07T02:45:36.914Z,9.61
2023-05-07T02:46:36.873Z,9.56
2023-05-07T02:47:36.925Z,9.60
2023-05-07T02:48:36.853Z,9.66
2023-05-07T02:49:36.840Z,9.60
2023-05-07T02:50:36.829Z,9.67
2023-05-07T02:51:36.821Z,9.66
2023-05-07T02:52:36.821Z,9.76
2023-05-07T02:53:36.796Z,9.68
2023-05-07T02:54:36.781Z,9.67
2023-05-07T02:55:36.776Z,9.64
2023-05-07T02:56:37.024Z,9.63
2023-05-07T02:57:36.766Z,9.63
2023-05-07T02:58:36.738Z,9.60
2023-05-07T02:59:36.729Z,9.61
2023-05-07T03:00:36.715Z,9.57
2023-05-07T03:01:36.752Z,9.61
2023-05-07T03:02:36.730Z,9.61
2023-05-07T03:03:36.704Z,9.58
2023-05-07T03:04:36.748Z,9.61
2023-05-07T03:05:36.672Z,9.68
2023-05-07T03:06:36.717Z,9.68
2023-05-07T03:07:36.645Z,9.67
2023-05-07T03:08:36.631Z,9.61
2023-05-07T03:09:36.623Z,9.67
2023-05-07T03:10:36.637Z,9.64
2023-05-07T03:11:36.620Z,9.66
2023-05-07T03:12:36.823Z,9.66
2023-05-07T03:13:36.574Z,9.63
2023-05-07T03:14:36.596Z,9.63
2023-05-07T03:15:36.624Z,9.58
2023-05-07T03:16:36.538Z,9.67
2023-05-07T03:17:36.597Z,9.57
2023-05-07T03:18:36.602Z,9.61
2023-05-07T03:19:36.508Z,9.58
2023-05-07T03:20:36.558Z,9.53
2023-05-07T03:21:36.490Z,9.58
2023-05-07T03:22:36.470Z,9.64
2023-05-07T03:23:36.464Z,9.58
2023-05-07T03:24:36.477Z,9.66
2023-05-07T03:25:36.462Z,9.68
2023-05-07T03:26:36.430Z,9.64
2023-05-07T03:27:36.419Z,9.64
2023-05-07T03:28:36.502Z,9.76
2023-05-07T03:29:36.418Z,9.56
2023-05-07T03:30:36.413Z,9.73
2023-05-07T03:31:36.479Z,9.64
2023-05-07T03:32:36.387Z,9.66
2023-05-07T03:33:36.380Z,9.60
2023-05-07T03:34:36.339Z,9.67
2023-05-07T03:35:36.347Z,9.64
2023-05-07T03:36:36.313Z,9.61
2023-05-07T03:37:36.432Z,9.63
2023-05-07T03:38:36.305Z,9.61
2023-05-07T03:39:36.284Z,9.60
2023-05-07T03:40:36.286Z,9.64
2023-05-07T03:41:36.262Z,9.53
2023-05-07T03:42:36.253Z,9.63
2023-05-07T03:43:36.244Z,9.61
2023-05-07T03:44:36.372Z,9.64
2023-05-07T03:45:36.238Z,9.58
2023-05-07T03:46:36.236Z,9.63
2023-05-07T03:47:36.392Z,9.57
2023-05-07T03:48:36.188Z,9.63
2023-05-07T03:49:36.175Z,9.63
2023-05-07T03:50:36.170Z,9.58
2023-05-07T03:51:36.156Z,9.60
2023-05-07T03:52:36.168Z,9.57
2023-05-07T03:53:36.167Z,9.63
2023-05-07T03:54:36.120Z,9.52
2023-05-07T03:55:36.105Z,9.61
2023-05-07T03:56:36.102Z,9.49
2023-05-07T03:57:36.426Z,9.50
2023-05-07T03:58:36.077Z,9.42
2023-05-07T03:59:36.080Z,9.45
2023-05-07T04:00:36.074Z,9.48
2023-05-07T04:01:36.108Z,9.56
2023-05-07T04:02:36.157Z,9.58
2023-05-07T04:03:36.078Z,9.60
2023-05-07T04:04:36.009Z,9.58
2023-05-07T04:05:36.011Z,9.58
2023-05-07T04:06:36.052Z,9.58
2023-05-07T04:07:36.058Z,9.56
2023-05-07T04:08:35.975Z,9.61
2023-05-07T04:09:35.973Z,9.60
2023-05-07T04:10:35.947Z,9.60
2023-05-07T04:11:35.953Z,9.52
2023-05-07T04:12:35.933Z,9.52
2023-05-07T04:13:35.911Z,9.53
2023-05-07T04:14:35.901Z,9.43
2023-05-07T04:15:35.924Z,9.49
2023-05-07T04:16:36.040Z,9.46
2023-05-07T04:17:35.910Z,9.38
2023-05-07T04:18:35.857Z,9.34
2023-05-07T04:19:35.847Z,9.32
2023-05-07T04:20:35.871Z,9.31
2023-05-07T04:21:35.821Z,9.35
2023-05-07T04:22:35.819Z,9.40
2023-05-07T04:23:35.802Z,9.39
2023-05-07T04:24:35.793Z,9.38
2023-05-07T04:25:35.796Z,9.50
2023-05-07T04:26:35.766Z,9.43
2023-05-07T04:27:35.765Z,9.50
2023-05-07T04:28:35.746Z,9.39
2023-05-07T04:29:35.734Z,9.43
2023-05-07T04:30:35.735Z,9.48
2023-05-07T04:31:35.726Z,9.49
2023-05-07T04:32:35.821Z,9.49
2023-05-07T04:33:35.690Z,9.46
2023-05-07T04:34:35.678Z,9.43
2023-05-07T04:35:35.703Z,9.52
2023-05-07T04:36:35.653Z,9.58
2023-05-07T04:37:35.654Z,9.60
2023-05-07T04:38:35.645Z,9.64
2023-05-07T04:39:35.673Z,9.60
2023-05-07T04:40:35.609Z,9.57
2023-05-07T04:41:35.599Z,9.56
2023-05-07T04:42:35.593Z,9.58
2023-05-07T04:43:35.599Z,9.63
2023-05-07T04:44:35.584Z,9.61
2023-05-07T04:45:35.611Z,9.60
2023-05-07T04:46:35.595Z,9.60
2023-05-07T04:47:35.561Z,9.60
2023-05-07T04:48:35.702Z,9.61
2023-05-07T04:49:35.518Z,9.43
2023-05-07T04:50:35.505Z,9.49
2023-05-07T04:51:35.492Z,9.49
2023-05-07T04:52:35.484Z,9.53
2023-05-07T04:53:35.483Z,9.50
2023-05-07T04:54:35.479Z,9.57
2023-05-07T04:55:35.449Z,9.63
2023-05-07T04:56:35.434Z,9.63
2023-05-07T04:57:35.426Z,9.64
2023-05-07T04:58:35.416Z,9.61
2023-05-07T04:59:35.423Z,9.64
2023-05-07T05:00:35.397Z,9.58
2023-05-07T05:01:35.408Z,9.66
2023-05-07T05:02:35.393Z,9.61
2023-05-07T05:03:35.478Z,9.63
2023-05-07T05:04:35.366Z,9.61
2023-05-07T05:05:35.340Z,9.63
2023-05-07T05:06:35.334Z,9.66
2023-05-07T05:07:35.366Z,9.68
2023-05-07T05:08:35.324Z,9.63
2023-05-07T05:09:35.310Z,9.68
2023-05-07T05:10:35.283Z,9.66
2023-05-07T05:11:35.286Z,9.66
2023-05-07T05:12:35.314Z,9.67
2023-05-07T05:13:35.272Z,9.66
2023-05-07T05:14:35.250Z,9.76
2023-05-07T05:15:35.238Z,9.75
2023-05-07T05:16:35.300Z,9.73
2023-05-07T05:17:35.220Z,9.73
2023-05-07T05:18:35.199Z,9.75
2023-05-07T05:19:35.189Z,9.71
2023-05-07T05:20:35.288Z,9.67
2023-05-07T05:21:35.183Z,9.58
2023-05-07T05:22:35.156Z,9.61
2023-05-07T05:23:35.142Z,9.60
2023-05-07T05:24:35.131Z,9.68
2023-05-07T05:25:35.123Z,9.81
2023-05-07T05:26:35.124Z,9.70
2023-05-07T05:27:35.101Z,9.71
2023-05-07T05:28:35.093Z,9.67
2023-05-07T05:29:35.135Z,9.66
2023-05-07T05:30:35.098Z,9.53
2023-05-07T05:31:35.223Z,9.66
2023-05-07T05:32:35.051Z,9.64
2023-05-07T05:33:35.033Z,9.61
2023-05-07T05:34:35.025Z,9.68
2023-05-07T05:35:35.069Z,9.70
2023-05-07T05:36:35.100Z,9.76
2023-05-07T05:37:34.989Z,9.82
2023-05-07T05:38:34.981Z,9.75
2023-05-07T05:39:34.983Z,9.78
2023-05-07T05:40:34.973Z,9.73
2023-05-07T05:41:34.954Z,9.81
2023-05-07T05:42:34.940Z,9.79
2023-05-07T05:43:34.924Z,9.83
2023-05-07T05:44:34.914Z,9.88
2023-05-07T05:45:34.927Z,9.82
2023-05-07T05:46:36.999Z,9.85
2023-05-07T05:47:34.909Z,9.85
2023-05-07T05:48:34.871Z,9.85
2023-05-07T05:49:34.870Z,9.93
2023-05-07T05:50:34.862Z,9.93
2023-05-07T05:51:34.844Z,10.00
2023-05-07T05:52:34.937Z,9.97
2023-05-07T05:53:34.820Z,10.12
2023-05-07T05:54:34.824Z,10.14
2023-05-07T05:55:34.796Z,10.14
2023-05-07T05:56:34.794Z,10.09
2023-05-07T05:57:34.771Z,10.18
2023-05-07T05:58:34.782Z,10.18
2023-05-07T05:59:34.748Z,10.30
2023-05-07T06:00:34.880Z,10.19
2023-05-07T06:01:34.825Z,10.21
2023-05-07T06:02:34.843Z,10.19
2023-05-07T06:03:34.707Z,10.21
2023-05-07T06:04:34.735Z,10.17
2023-05-07T06:05:34.681Z,10.30
2023-05-07T06:06:34.696Z,10.30
2023-05-07T06:07:34.662Z,10.36
2023-05-07T06:08:34.707Z,10.52
2023-05-07T06:09:34.640Z,10.52
2023-05-07T06:10:34.631Z,10.63
2023-05-07T06:11:34.633Z,10.68
2023-05-07T06:12:34.753Z,10.80
2023-05-07T06:13:34.619Z,10.84
2023-05-07T06:14:34.590Z,10.96
2023-05-07T06:15:34.574Z,10.96
2023-05-07T06:16:34.591Z,11.03
2023-05-07T06:17:34.592Z,10.95
2023-05-07T06:18:34.546Z,10.96
2023-05-07T06:19:34.541Z,10.95
2023-05-07T06:20:34.518Z,10.92
2023-05-07T06:21:34.551Z,10.96
2023-05-07T06:22:34.506Z,11.03
2023-05-07T06:23:34.498Z,11.19
2023-05-07T06:24:34.526Z,11.17
2023-05-07T06:25:34.498Z,11.24
2023-05-07T06:26:34.465Z,11.20
2023-05-07T06:27:34.445Z,11.14
2023-05-07T06:28:34.435Z,11.19
2023-05-07T06:29:34.426Z,11.17
2023-05-07T06:30:34.435Z,11.25
2023-05-07T06:31:34.445Z,11.16
2023-05-07T06:32:34.408Z,11.24
2023-05-07T06:33:35.877Z,11.25
2023-05-07T06:34:34.377Z,11.16
2023-05-07T06:35:34.358Z,11.17
2023-05-07T06:36:34.360Z,11.14
2023-05-07T06:37:34.344Z,10.98
2023-05-07T06:38:34.323Z,10.81
2023-05-07T06:39:34.314Z,10.70
2023-05-07T06:40:34.468Z,10.70
2023-05-07T06:41:34.295Z,10.71
2023-05-07T06:42:34.278Z,10.76
2023-05-07T06:43:34.272Z,10.70
2023-05-07T06:44:34.259Z,10.68
2023-05-07T06:45:34.264Z,10.83
2023-05-07T06:46:34.292Z,10.77
2023-05-07T06:47:34.264Z,10.73
2023-05-07T06:48:34.219Z,10.81
2023-05-07T06:49:34.223Z,10.88
2023-05-07T06:50:34.234Z,10.83
2023-05-07T06:51:34.181Z,10.96
2023-05-07T06:52:34.174Z,10.95
2023-05-07T06:53:34.157Z,11.03
2023-05-07T06:54:34.179Z,11.02
2023-05-07T06:55:34.150Z,11.09
2023-05-07T06:56:34.142Z,11.28
2023-05-07T06:57:34.116Z,11.20
2023-05-07T06:58:34.115Z,11.16
2023-05-07T06:59:34.118Z,11.14
2023-05-07T07:00:34.132Z,11.02
2023-05-07T07:01:34.113Z,11.07
2023-05-07T07:02:34.096Z,11.10
2023-05-07T07:03:34.082Z,11.17
2023-05-07T07:04:34.115Z,11.39
2023-05-07T07:05:34.058Z,11.39
2023-05-07T07:06:34.021Z,11.50
2023-05-07T07:07:34.002Z,11.53
2023-05-07T07:08:34.019Z,11.44
2023-05-07T07:09:34.010Z,11.56
2023-05-07T07:10:33.982Z,11.49
2023-05-07T07:11:34.042Z,11.44
2023-05-07T07:12:33.969Z,11.54
2023-05-07T07:13:33.953Z,11.65
2023-05-07T07:14:33.924Z,11.77
2023-05-07T07:15:33.910Z,11.97
2023-05-07T07:16:33.992Z,11.99
2023-05-07T07:17:33.913Z,12.04
2023-05-07T07:18:33.890Z,12.29
2023-05-07T07:19:33.872Z,12.75
2023-05-07T07:20:33.856Z,13.36
2023-05-07T07:21:33.848Z,13.59
2023-05-07T07:22:33.857Z,13.59
2023-05-07T07:23:33.860Z,13.61
2023-05-07T07:24:33.812Z,14.06
2023-05-07T07:25:33.802Z,14.44
2023-05-07T07:26:33.790Z,14.54
2023-05-07T07:27:33.839Z,14.87
2023-05-07T07:28:33.787Z,15.01
2023-05-07T07:29:33.758Z,15.21
2023-05-07T07:30:33.760Z,15.24
2023-05-07T07:31:33.795Z,15.59
2023-05-07T07:32:33.783Z,15.75
2023-05-07T07:33:33.718Z,15.66
2023-05-07T07:34:33.705Z,15.17
2023-05-07T07:35:33.690Z,15.02
2023-05-07T07:36:45.162Z,14.74
2023-05-07T07:37:34.665Z,14.69
2023-05-07T07:38:33.661Z,14.87
2023-05-07T07:39:33.645Z,15.23
2023-05-07T07:40:33.638Z,15.46
2023-05-07T07:41:33.639Z,15.84
2023-05-07T07:42:33.619Z,15.63
2023-05-07T07:43:33.604Z,15.49
2023-05-07T07:44:33.608Z,15.27
2023-05-07T07:45:33.608Z,14.98
2023-05-07T07:46:33.658Z,14.81
2023-05-07T07:47:33.606Z,14.75
2023-05-07T07:48:33.930Z,14.75
2023-05-07T07:49:33.541Z,14.49
2023-05-07T07:50:44.497Z,14.34
2023-05-07T07:51:34.548Z,14.50
2023-05-07T07:52:33.517Z,14.49
2023-05-07T07:53:33.503Z,14.34
2023-05-07T07:54:33.526Z,14.20
2023-05-07T07:55:33.486Z,14.35
2023-05-07T07:56:33.471Z,14.71
2023-05-07T07:57:33.448Z,14.91
2023-05-07T07:58:33.457Z,15.19
2023-05-07T07:59:33.433Z,15.05
2023-05-07T08:00:33.465Z,14.88
2023-05-07T08:01:33.415Z,14.86
2023-05-07T08:02:33.478Z,14.72
2023-05-07T08:03:33.549Z,15.03
2023-05-07T08:04:33.477Z,15.38
2023-05-07T08:05:33.375Z,15.64
2023-05-07T08:06:33.356Z,16.00
2023-05-07T08:07:33.358Z,16.27
2023-05-07T08:08:33.356Z,16.71
2023-05-07T08:09:33.355Z,17.00
2023-05-07T08:10:33.615Z,17.41
2023-05-07T08:11:33.300Z,17.79
2023-05-07T08:12:33.290Z,17.84
2023-05-07T08:13:33.296Z,18.03
2023-05-07T08:14:33.299Z,18.31
2023-05-07T08:15:33.273Z,18.42
2023-05-07T08:16:33.286Z,18.37
2023-05-07T08:17:33.334Z,17.97
2023-05-07T08:18:33.268Z,17.78
2023-05-07T08:19:33.212Z,17.85
2023-05-07T08:20:33.204Z,17.84
2023-05-07T08:21:34.560Z,17.62
2023-05-07T08:22:33.205Z,17.99
2023-05-07T08:23:33.221Z,18.13
2023-05-07T08:24:33.162Z,18.28
2023-05-07T08:25:33.159Z,18.17
2023-05-07T08:26:33.144Z,18.34
2023-05-07T08:27:33.173Z,18.28
2023-05-07T08:28:33.189Z,18.33
2023-05-07T08:29:33.107Z,18.50
2023-05-07T08:30:33.162Z,18.70
2023-05-07T08:31:33.083Z,18.74
2023-05-07T08:32:33.152Z,18.73
2023-05-07T08:33:33.067Z,18.39
2023-05-07T08:34:33.056Z,18.21
2023-05-07T08:35:33.061Z,18.21
2023-05-07T08:36:33.031Z,18.07
2023-05-07T08:37:33.048Z,18.17
2023-05-07T08:38:33.262Z,18.27
2023-05-07T08:39:33.009Z,18.15
2023-05-07T08:40:32.992Z,17.95
2023-05-07T08:41:32.987Z,18.07
2023-05-07T08:42:32.991Z,18.24
2023-05-07T08:43:32.954Z,17.99
2023-05-07T08:44:32.946Z,18.12
2023-05-07T08:45:32.935Z,18.46
2023-05-07T08:46:32.994Z,18.54
2023-05-07T08:47:32.934Z,18.29
2023-05-07T08:48:33.118Z,17.88
2023-05-07T08:49:32.918Z,17.46
2023-05-07T08:50:32.888Z,17.13
2023-05-07T08:51:32.943Z,16.92
2023-05-07T08:52:32.859Z,16.59
2023-05-07T08:53:32.866Z,16.50
2023-05-07T08:54:32.869Z,16.30
2023-05-07T08:55:32.892Z,16.23
2023-05-07T08:56:32.857Z,16.22
2023-05-07T08:57:32.808Z,16.26
2023-05-07T08:58:32.798Z,16.59
2023-05-07T08:59:32.797Z,16.99
2023-05-07T09:00:32.783Z,17.08
2023-05-07T09:01:32.816Z,17.17
2023-05-07T09:02:32.810Z,17.06
2023-05-07T09:03:32.774Z,17.03
2023-05-07T09:04:32.759Z,16.88
2023-05-07T09:05:32.767Z,16.63
2023-05-07T09:06:32.705Z,16.14
2023-05-07T09:07:32.731Z,15.89
2023-05-07T09:08:32.741Z,16.01
2023-05-07T09:09:32.771Z,16.00
2023-05-07T09:10:32.690Z,16.09
2023-05-07T09:11:32.678Z,16.25
2023-05-07T09:12:32.672Z,16.15
2023-05-07T09:13:32.630Z,16.06
2023-05-07T09:14:32.629Z,15.89
2023-05-07T09:15:32.640Z,15.96
2023-05-07T09:16:32.655Z,16.07
2023-05-07T09:17:32.601Z,16.00
2023-05-07T09:18:32.575Z,15.86
2023-05-07T09:19:32.615Z,15.92
2023-05-07T09:20:32.649Z,16.38
2023-05-07T09:21:32.545Z,16.31
2023-05-07T09:22:32.557Z,16.34
2023-05-07T09:23:32.586Z,16.42
2023-05-07T09:24:32.512Z,16.80
2023-05-07T09:25:32.548Z,17.20
2023-05-07T09:26:32.487Z,17.66
2023-05-07T09:27:32.480Z,17.81
2023-05-07T09:29:32.452Z,17.03
2023-05-07T09:30:32.469Z,16.78
2023-05-07T09:31:32.478Z,16.70
2023-05-07T09:32:32.493Z,17.11
2023-05-07T09:33:32.444Z,17.28
2023-05-07T09:34:32.409Z,17.33
2023-05-07T09:35:32.388Z,17.18
2023-05-07T09:36:32.393Z,17.06
2023-05-07T09:37:32.409Z,17.11
2023-05-07T09:38:32.387Z,17.06
2023-05-07T09:39:32.343Z,16.99
2023-05-07T09:40:32.376Z,17.00
2023-05-07T09:41:32.321Z,16.77
2023-05-07T09:42:32.347Z,16.62
2023-05-07T09:43:32.325Z,16.34
2023-05-07T09:44:32.290Z,16.23
2023-05-07T09:45:32.289Z,16.15
2023-05-07T09:46:32.282Z,16.12
2023-05-07T09:47:32.299Z,15.99
2023-05-07T09:48:32.245Z,15.78
2023-05-07T09:49:32.234Z,15.56
2023-05-07T09:50:32.224Z,15.51
2023-05-07T09:51:32.246Z,15.33
2023-05-07T09:52:32.357Z,15.31
2023-05-07T09:53:32.196Z,15.72
2023-05-07T09:54:32.206Z,15.88
2023-05-07T09:55:32.179Z,15.93
2023-05-07T09:56:32.156Z,15.81
2023-05-07T09:57:32.153Z,15.72
2023-05-07T09:58:32.129Z,15.64
2023-05-07T09:59:32.139Z,15.57
2023-05-07T10:00:32.111Z,15.57
2023-05-07T10:01:32.253Z,15.20
2023-05-07T10:02:32.172Z,15.15
2023-05-07T10:03:32.188Z,15.30
2023-05-07T10:04:32.070Z,15.46
2023-05-07T10:05:32.088Z,15.45
2023-05-07T10:06:32.090Z,15.41
2023-05-07T10:07:32.040Z,15.45
2023-05-07T10:08:32.121Z,15.60
2023-05-07T10:09:32.023Z,15.78
2023-05-07T10:10:32.045Z,16.04
2023-05-07T10:11:31.992Z,16.52
2023-05-07T10:12:32.007Z,16.49
2023-05-07T10:13:31.970Z,17.06
2023-05-07T10:14:31.987Z,17.62
2023-05-07T10:15:31.960Z,17.82
2023-05-07T10:16:31.933Z,18.10
2023-05-07T10:17:32.004Z,17.89
2023-05-07T10:18:32.116Z,17.87
2023-05-07T10:19:31.948Z,17.69
2023-05-07T10:20:31.943Z,17.22
2023-05-07T10:21:31.978Z,17.06
2023-05-07T10:22:31.899Z,16.81
2023-05-07T10:23:31.859Z,16.65
2023-05-07T10:24:31.967Z,16.52
2023-05-07T10:25:31.836Z,16.49
2023-05-07T10:26:31.839Z,16.48
2023-05-07T10:27:31.828Z,16.22
2023-05-07T10:28:31.844Z,15.86
2023-05-07T10:29:31.842Z,15.85
2023-05-07T10:30:33.091Z,15.60
2023-05-07T10:31:31.870Z,15.49
2023-05-07T10:32:31.848Z,15.38
2023-05-07T10:33:31.884Z,15.21
2023-05-07T10:34:31.801Z,15.12
2023-05-07T10:35:31.735Z,15.02
2023-05-07T10:36:31.717Z,14.71
2023-05-07T10:37:31.714Z,14.68
2023-05-07T10:38:31.727Z,14.62
2023-05-07T10:39:31.691Z,14.71
2023-05-07T10:40:31.717Z,14.83
2023-05-07T10:41:31.668Z,14.93
2023-05-07T10:42:31.693Z,14.90
2023-05-07T10:43:31.658Z,14.93
2023-05-07T10:44:31.635Z,15.08
2023-05-07T10:45:31.648Z,14.98
2023-05-07T10:46:31.666Z,15.02
2023-05-07T10:47:31.645Z,15.06
2023-05-07T10:48:31.645Z,14.93
2023-05-07T10:49:31.652Z,15.13
2023-05-07T10:50:31.643Z,15.11
2023-05-07T10:51:31.559Z,15.13
2023-05-07T10:52:31.560Z,15.15
2023-05-07T10:53:31.543Z,15.12
2023-05-07T10:54:31.526Z,15.12
2023-05-07T10:55:31.512Z,14.93
2023-05-07T10:56:31.620Z,14.88
2023-05-07T10:57:31.515Z,14.94
2023-05-07T10:58:32.700Z,14.95
2023-05-07T10:59:31.494Z,14.95
2023-05-07T11:01:31.472Z,15.01
2023-05-07T11:02:31.482Z,15.06
2023-05-07T11:03:31.424Z,15.09
2023-05-07T11:04:31.471Z,15.09
2023-05-07T11:05:31.506Z,15.11
2023-05-07T11:06:31.428Z,15.12
2023-05-07T11:07:39.154Z,15.30
2023-05-07T11:08:31.385Z,15.26
2023-05-07T11:09:31.360Z,15.24
2023-05-07T11:10:31.434Z,15.21
2023-05-07T11:11:31.352Z,15.26
2023-05-07T11:12:31.401Z,15.17
2023-05-07T11:13:31.306Z,15.13
2023-05-07T11:14:31.319Z,14.93
2023-05-07T11:15:31.287Z,14.98
2023-05-07T11:16:31.392Z,14.80
2023-05-07T11:17:31.273Z,14.65
2023-05-07T11:18:31.258Z,14.67
2023-05-07T11:19:31.240Z,14.60
2023-05-07T11:20:31.302Z,14.49
2023-05-07T11:21:31.219Z,14.54
2023-05-07T11:22:31.207Z,14.53
2023-05-07T11:23:31.200Z,14.75
2023-05-07T11:24:31.187Z,14.87
2023-05-07T11:25:31.214Z,14.87
2023-05-07T11:26:31.158Z,14.81
2023-05-07T11:27:31.166Z,14.88
2023-05-07T11:28:31.158Z,14.94
2023-05-07T11:29:31.181Z,15.02
2023-05-07T11:30:31.130Z,15.13
2023-05-07T11:31:31.300Z,15.13
2023-05-07T11:32:31.216Z,15.26
2023-05-07T11:33:31.081Z,15.28
2023-05-07T11:34:31.135Z,15.43
2023-05-07T11:35:31.065Z,15.46
2023-05-07T11:36:31.050Z,15.45
2023-05-07T11:37:31.091Z,15.35
2023-05-07T11:38:31.025Z,15.36
2023-05-07T11:39:31.064Z,15.39
2023-05-07T11:40:31.007Z,15.45
2023-05-07T11:41:30.993Z,15.61
2023-05-07T11:42:30.986Z,15.57
2023-05-07T11:43:30.987Z,15.75
2023-05-07T11:44:30.988Z,15.76
2023-05-07T11:45:30.966Z,15.78
2023-05-07T11:46:30.966Z,15.61
2023-05-07T11:47:31.020Z,15.70
2023-05-07T11:48:30.944Z,15.76
2023-05-07T11:49:30.926Z,15.89
2023-05-07T11:50:30.935Z,15.97
2023-05-07T11:51:30.879Z,15.99
2023-05-07T11:52:30.873Z,15.99
2023-05-07T11:53:30.883Z,16.03
2023-05-07T11:54:30.854Z,16.04
2023-05-07T11:55:30.839Z,15.99
2023-05-07T11:56:30.837Z,15.94
2023-05-07T11:57:30.858Z,15.70
2023-05-07T11:58:30.826Z,15.59
2023-05-07T11:59:30.794Z,15.63
2023-05-07T12:00:30.808Z,15.63
2023-05-07T12:01:30.777Z,15.75
2023-05-07T12:02:30.923Z,15.79
2023-05-07T12:03:32.113Z,15.74
2023-05-07T12:04:31.858Z,15.72
2023-05-07T12:05:30.733Z,15.61
2023-05-07T12:06:30.720Z,15.61
2023-05-07T12:07:30.720Z,15.72
2023-05-07T12:08:30.701Z,15.70
2023-05-07T12:09:30.686Z,15.79
2023-05-07T12:10:30.686Z,15.84
2023-05-07T12:11:30.678Z,15.94
2023-05-07T12:12:30.854Z,15.97
2023-05-07T12:13:30.709Z,15.94
2023-05-07T12:14:30.627Z,15.94
2023-05-07T12:15:30.619Z,15.93
2023-05-07T12:16:30.659Z,15.94
2023-05-07T12:17:30.625Z,15.85
2023-05-07T12:18:30.586Z,15.82
2023-05-07T12:19:30.575Z,15.84
2023-05-07T12:20:30.585Z,15.85
2023-05-07T12:21:30.566Z,15.82
2023-05-07T12:22:30.559Z,15.93
2023-05-07T12:23:30.535Z,15.88
2023-05-07T12:24:30.533Z,15.81
2023-05-07T12:25:30.534Z,15.85
2023-05-07T12:26:30.536Z,15.74
2023-05-07T12:27:30.491Z,15.67
2023-05-07T12:28:30.535Z,15.61
2023-05-07T12:29:30.472Z,15.64
2023-05-07T12:30:30.476Z,15.59
2023-05-07T12:31:30.479Z,15.49
2023-05-07T12:32:30.553Z,15.45
2023-05-07T12:33:30.422Z,15.49
2023-05-07T12:34:30.411Z,15.63
2023-05-07T12:35:30.429Z,15.66
2023-05-07T12:36:30.393Z,15.74
2023-05-07T12:37:32.438Z,15.74
2023-05-07T12:38:30.372Z,15.74
2023-05-07T12:39:30.391Z,15.75
2023-05-07T12:40:30.346Z,15.88
2023-05-07T12:41:30.346Z,15.89
2023-05-07T12:42:30.326Z,15.74
2023-05-07T12:43:30.314Z,15.72
2023-05-07T12:44:30.326Z,15.78
2023-05-07T12:45:30.307Z,15.72
2023-05-07T12:46:30.296Z,15.76
2023-05-07T12:47:30.324Z,15.88
2023-05-07T12:48:30.313Z,15.82
2023-05-07T12:49:30.324Z,15.86
2023-05-07T12:50:30.242Z,15.84
2023-05-07T12:51:30.231Z,15.84
2023-05-07T12:52:30.220Z,15.92
2023-05-07T12:53:30.226Z,15.88
2023-05-07T12:54:30.215Z,15.78
2023-05-07T12:55:34.807Z,15.79
2023-05-07T12:56:30.170Z,15.75
2023-05-07T12:57:30.170Z,15.64
2023-05-07T12:58:30.177Z,15.59
2023-05-07T12:59:30.142Z,15.68
2023-05-07T13:00:30.131Z,15.70
2023-05-07T13:01:30.153Z,15.68
2023-05-07T13:02:30.190Z,15.63
2023-05-07T13:03:30.494Z,15.66
2023-05-07T13:04:30.109Z,15.70
2023-05-07T13:05:30.080Z,15.61
2023-05-07T13:06:30.063Z,15.70